Time;durP1;ratioP1;P1;durP2;ratioP2;P2;SDS_P1;SDS_P2;PMS_P1;PMS_P2;Temp;Humidity;BMP_temperature;BMP_pressure;BME280_temperature;BME280_humidity;BME280_pressure;Samples;Min_cycle;Max_cycle;Signal;HPM_P1;HPM_P2
2022/05/23 00:00:33;;;;;;;;;3.60;3.60;;;;;22.39;31.62;98980.72;5096077;28;8844;-80
2022/05/23 00:03:06;;;;;;;;;3.20;3.20;;;;;22.41;31.52;98980.66;5113065;28;8840;-80
2022/05/23 00:05:35;;;;;;;;;3.80;3.80;;;;;22.45;31.72;98984.84;5113260;28;8875;-79
2022/05/23 00:08:05;;;;;;;;;3.60;3.60;;;;;22.43;31.47;98983.22;5090653;28;8826;-80
2022/05/23 00:10:33;;;;;;;;;4.00;4.00;;;;;22.44;31.52;98983.13;5073451;28;8996;-78
2022/05/23 00:13:02;;;;;;;;;4.40;3.80;;;;;22.28;31.55;98985.81;5073189;28;8924;-79
2022/05/23 00:15:31;;;;;;;;;4.00;4.00;;;;;22.35;31.71;98987.19;5100103;28;8829;-79
2022/05/23 00:18:00;;;;;;;;;4.20;4.20;;;;;22.43;31.52;98988.53;5093943;28;8941;-80
2022/05/23 00:20:30;;;;;;;;;5.20;3.60;;;;;22.49;31.49;98999.66;5107822;28;8855;-80
2022/05/23 00:23:02;;;;;;;;;5.00;3.00;;;;;22.55;31.52;98998.44;5090055;28;8870;-79
2022/05/23 00:25:31;;;;;;;;;3.60;3.60;;;;;22.41;31.52;99001.91;5094122;28;9139;-77
2022/05/23 00:27:59;;;;;;;;;4.20;4.20;;;;;22.37;31.70;98993.25;5092250;28;8890;-80
2022/05/23 00:30:29;;;;;;;;;4.80;4.00;;;;;22.46;31.48;98991.03;5094250;27;8937;-80
2022/05/23 00:35:52;;;;;;;;;3.80;3.60;;;;;22.56;31.67;98987.72;5094127;28;8833;-76
2022/05/23 00:38:21;;;;;;;;;3.00;3.00;;;;;22.55;31.40;98996.66;5103642;28;9728;-76
2022/05/23 00:43:13;;;;;;;;;4.20;3.60;;;;;22.56;31.52;98993.03;5131807;27;8844;-75
2022/05/23 00:43:41;;;;;;;;;2.20;2.20;;;;;22.57;31.47;98997.41;5080120;28;9797;-76
2022/05/23 00:46:12;;;;;;;;;3.20;3.20;;;;;22.63;31.43;98987.34;5114359;28;8857;-79
2022/05/23 00:48:41;;;;;;;;;3.20;3.20;;;;;22.67;31.62;98988.91;5116987;28;8863;-78
2022/05/23 00:51:14;;;;;;;;;3.60;3.60;;;;;22.69;31.33;98987.84;5108020;28;8825;-78
2022/05/23 00:53:49;;;;;;;;;1.80;1.80;;;;;22.74;31.42;98982.25;5083173;28;8837;-79
2022/05/23 00:56:23;;;;;;;;;3.80;3.40;;;;;22.74;31.18;98985.78;5111870;28;8915;-79
2022/05/23 00:58:56;;;;;;;;;4.40;4.40;;;;;22.73;31.12;98986.72;5103638;28;9620;-78
2022/05/23 01:01:27;;;;;;;;;4.60;4.60;;;;;22.74;31.21;98993.75;5073514;28;8870;-79
2022/05/23 01:03:57;;;;;;;;;5.60;4.60;;;;;22.77;31.59;98984.75;5073380;28;8852;-79
2022/05/23 01:06:28;;;;;;;;;5.60;5.60;;;;;22.80;31.23;98975.72;5081227;28;8962;-81
2022/05/23 01:08:57;;;;;;;;;3.20;3.20;;;;;22.82;31.23;98977.34;5072886;28;8855;-79
2022/05/23 01:11:27;;;;;;;;;5.40;5.00;;;;;22.84;31.39;98978.09;5089683;28;8876;-80
2022/05/23 01:13:55;;;;;;;;;3.00;3.00;;;;;22.83;31.43;98976.38;5089633;28;8948;-79
2022/05/23 01:16:27;;;;;;;;;3.80;3.80;;;;;22.81;31.33;98970.31;5072992;28;8851;-77
2022/05/23 01:19:00;;;;;;;;;4.20;4.20;;;;;22.66;31.38;98976.53;5073840;28;8864;-80
2022/05/23 01:21:43;;;;;;;;;3.40;3.40;;;;;22.62;31.46;98981.19;5090563;28;8847;-79
2022/05/23 01:24:18;;;;;;;;;3.80;3.80;;;;;22.57;31.45;98975.28;5101840;27;8837;-80
2022/05/23 01:26:56;;;;;;;;;3.00;3.00;;;;;22.56;31.54;98971.78;5093923;28;8876;-81
2022/05/23 01:29:33;;;;;;;;;3.00;3.00;;;;;22.58;31.66;98969.88;5110871;28;8889;-80
2022/05/23 01:32:13;;;;;;;;;3.60;3.60;;;;;22.61;31.68;98963.53;5110330;28;8837;-78
2022/05/23 01:34:47;;;;;;;;;4.60;4.60;;;;;22.65;31.77;98966.88;5072515;28;8859;-79
2022/05/23 01:37:22;;;;;;;;;3.60;3.60;;;;;22.65;31.57;98942.97;5072743;28;8851;-78
2022/05/23 01:40:02;;;;;;;;;3.00;3.00;;;;;22.59;32.10;98944.19;5100518;28;8861;-79
2022/05/23 01:42:43;;;;;;;;;2.80;2.80;;;;;22.56;31.82;98960.28;5093393;28;8913;-78
2022/05/23 01:45:17;;;;;;;;;4.00;4.00;;;;;22.55;31.98;98951.47;5093096;28;8906;-80
2022/05/23 01:47:46;;;;;;;;;2.20;1.60;;;;;22.58;32.08;98953.94;5110373;28;8821;-80
2022/05/23 01:50:15;;;;;;;;;4.00;4.00;;;;;22.62;31.78;98951.09;5093315;28;8845;-81
2022/05/23 01:52:54;;;;;;;;;3.80;3.80;;;;;22.64;32.00;98943.88;5112269;28;8840;-80
2022/05/23 01:55:30;;;;;;;;;3.40;3.40;;;;;22.65;32.09;98946.47;5093364;28;8918;-77
2022/05/23 02:01:16;;;;;;;;;4.60;3.60;;;;;22.56;31.83;98955.81;5108584;28;8864;-78
2022/05/23 02:03:56;;;;;;;;;3.40;3.40;;;;;22.47;31.81;98951.06;5061858;28;8833;-79
2022/05/23 02:06:32;;;;;;;;;4.60;4.60;;;;;22.45;31.75;98952.94;5050566;28;8968;-77
2022/05/23 02:09:07;;;;;;;;;5.00;4.20;;;;;22.39;31.82;98966.59;5047379;28;8834;-78
2022/05/23 02:11:44;;;;;;;;;4.00;4.00;;;;;22.37;32.00;98960.53;5047235;28;8866;-78
2022/05/23 02:14:23;;;;;;;;;3.80;3.80;;;;;22.36;32.03;98962.34;5033231;28;8870;-77
2022/05/23 02:16:52;;;;;;;;;4.20;3.60;;;;;22.35;31.83;98971.22;5029960;28;9020;-80
2022/05/23 02:19:25;;;;;;;;;3.40;3.40;;;;;22.39;32.08;98979.88;5029996;28;8990;-80
2022/05/23 02:22:07;;;;;;;;;4.60;4.40;;;;;22.38;32.02;98967.53;5046795;28;8901;-80
2022/05/23 02:24:36;;;;;;;;;3.40;3.40;;;;;22.40;31.85;98968.31;5046735;28;8901;-80
2022/05/23 02:27:06;;;;;;;;;3.40;3.40;;;;;22.41;31.99;98969.19;5046842;28;8873;-80
2022/05/23 02:29:41;;;;;;;;;4.20;4.20;;;;;22.41;32.27;98970.03;4984318;28;8942;-79
2022/05/23 02:32:11;;;;;;;;;4.40;3.80;;;;;22.39;31.79;98971.91;5037067;28;8848;-80
2022/05/23 02:34:41;;;;;;;;;4.40;3.60;;;;;22.40;32.06;98970.97;5049618;28;8847;-80
2022/05/23 02:37:11;;;;;;;;;4.20;3.80;;;;;22.04;32.99;98974.78;5077481;28;8857;-78
2022/05/23 02:39:49;;;;;;;;;4.80;4.80;;;;;21.13;35.08;98978.84;5108514;28;8836;-77
2022/05/23 02:42:19;;;;;;;;;6.40;6.20;;;;;20.44;37.38;98988.53;5108568;28;8833;-78
2022/05/23 02:44:51;;;;;;;;;3.80;3.80;;;;;19.95;38.51;98991.78;5091206;28;8952;-78
2022/05/23 02:47:26;;;;;;;;;5.40;5.40;;;;;19.75;38.46;98978.66;5108468;28;8842;-78
2022/05/23 02:49:56;;;;;;;;;4.60;4.60;;;;;19.85;38.25;98974.66;5089843;28;8825;-76
2022/05/23 02:52:45;;;;;;;;;4.20;4.20;;;;;19.60;38.51;98969.59;5091564;28;8841;-79
2022/05/23 02:55:30;;;;;;;;;4.60;4.60;;;;;19.41;39.29;98970.50;5107874;28;9780;-78
2022/05/23 02:58:01;;;;;;;;;5.00;5.00;;;;;19.34;38.85;98970.81;5074818;28;8953;-78
2022/05/23 03:00:36;;;;;;;;;5.00;4.40;;;;;19.11;39.84;98971.84;5107089;28;8851;-79
2022/05/23 03:03:08;;;;;;;;;4.00;4.00;;;;;19.06;39.69;98957.06;5090563;28;8831;-78
2022/05/23 03:05:53;;;;;;;;;5.60;5.60;;;;;19.06;39.94;98953.56;5089046;28;8867;-79
2022/05/23 03:08:25;;;;;;;;;6.60;5.80;;;;;19.07;39.19;98952.63;5090543;28;9612;-79
2022/05/23 03:10:59;;;;;;;;;5.00;5.00;;;;;19.05;39.94;98954.50;5049918;28;8871;-78
2022/05/23 03:13:29;;;;;;;;;4.80;4.80;;;;;18.97;40.02;98951.34;5051739;28;8866;-80
2022/05/23 03:15:59;;;;;;;;;4.80;4.00;;;;;18.93;39.96;98955.06;5070688;28;8890;-79
2022/05/23 03:18:29;;;;;;;;;5.80;5.80;;;;;18.89;39.90;98949.03;5054259;28;8897;-79
2022/05/23 03:21:05;;;;;;;;;6.60;6.20;;;;;18.86;40.03;98946.53;5053363;28;8859;-80
2022/05/23 03:29:15;;;;;;;;;4.80;4.80;;;;;18.75;40.49;98951.38;5004478;28;9683;-79
2022/05/23 03:31:48;;;;;;;;;6.60;6.60;;;;;18.65;40.42;98954.44;5003462;28;9083;-79
2022/05/23 03:34:17;;;;;;;;;2.00;2.00;;;;;18.69;40.62;98950.75;4978161;28;8860;-78
2022/05/23 03:36:46;;;;;;;;;4.80;4.80;;;;;18.93;40.16;98936.56;4994605;28;8859;-77
2022/05/23 03:39:16;;;;;;;;;5.00;5.00;;;;;19.11;40.60;98942.78;4993122;28;8870;-78
2022/05/23 03:41:46;;;;;;;;;6.60;6.60;;;;;19.15;41.45;98929.38;5010588;28;8866;-76
2022/05/23 03:44:15;;;;;;;;;7.60;7.40;;;;;19.43;41.66;98931.59;5011160;28;8992;-78
2022/05/23 03:46:44;;;;;;;;;7.60;7.60;;;;;19.68;41.75;98928.66;5010680;28;8982;-78
2022/05/23 03:49:14;;;;;;;;;9.40;9.40;;;;;19.76;42.29;98938.91;5051728;28;8864;-79
2022/05/23 03:51:44;;;;;;;;;9.00;8.60;;;;;19.50;43.50;98950.69;5070433;28;8849;-78
2022/05/23 03:54:12;;;;;;;;;8.80;8.00;;;;;19.50;43.86;98936.59;5071006;28;8938;-79
2022/05/23 03:56:45;;;;;;;;;11.20;9.20;;;;;19.32;44.89;98948.88;5049222;28;8934;-78
2022/05/23 03:59:15;;;;;;;;;10.80;10.20;;;;;19.25;45.19;98943.03;5033422;28;8915;-78
2022/05/23 04:01:56;;;;;;;;;64.75;50.75;;;;;19.35;44.72;98949.59;5033266;28;8865;-77
2022/05/23 04:04:34;;;;;;;;;14.20;12.20;;;;;19.36;44.24;98946.03;5016852;28;8854;-80
2022/05/23 04:07:47;;;;;;;;;8.00;7.20;;;;;18.89;43.90;98954.31;5032521;28;9028;-79
2022/05/23 04:10:28;;;;;;;;;12.20;9.60;;;;;18.79;44.42;98961.78;5023723;28;8875;-77
2022/05/23 04:12:57;;;;;;;;;7.80;7.40;;;;;18.94;43.74;98959.41;5035067;28;8875;-79
2022/05/23 04:15:26;;;;;;;;;7.40;7.20;;;;;19.23;42.83;98952.81;5052714;28;8871;-79
2022/05/23 04:17:55;;;;;;;;;7.00;7.00;;;;;19.52;42.29;98938.22;5036288;28;8867;-79
2022/05/23 04:20:26;;;;;;;;;26.75;25.75;;;;;19.76;40.32;98933.59;5052851;28;8843;-78
2022/05/23 04:23:08;;;;;;;;;17.60;16.60;;;;;19.97;38.82;98931.69;5036044;28;9646;-79
2022/05/23 04:25:40;;;;;;;;;7.00;7.00;;;;;20.17;38.22;98937.78;5034952;28;8898;-78
2022/05/23 04:28:10;;;;;;;;;22.67;21.67;;;;;20.33;37.96;98932.59;5052574;28;8883;-77
2022/05/23 04:30:43;;;;;;;;;9.20;8.00;;;;;20.51;37.62;98944.91;5069023;28;8859;-79
2022/05/23 04:36:04;;;;;;;;;7.80;7.80;;;;;19.17;44.22;98940.75;5052700;28;8875;-81
2022/05/23 04:38:37;;;;;;;;;6.80;6.80;;;;;18.85;44.72;98940.38;5019632;28;8855;-79
2022/05/23 04:41:09;;;;;;;;;8.20;8.00;;;;;18.98;44.53;98942.47;5073753;28;8873;-80
2022/05/23 04:43:51;;;;;;;;;7.20;6.20;;;;;18.84;44.81;98938.66;5091616;28;8870;-78
2022/05/23 04:46:26;;;;;;;;;17.75;17.75;;;;;18.61;46.09;98937.00;5073097;28;8869;-82
2022/05/23 04:52:14;;;;;;;;;6.40;6.00;;;;;18.75;44.77;98925.84;5093582;28;8836;-79
2022/05/23 04:54:44;;;;;;;;;6.00;6.00;;;;;18.72;44.21;98927.75;5091114;28;8859;-79
2022/05/23 04:57:14;;;;;;;;;6.80;6.80;;;;;19.11;43.92;98932.22;5072467;28;8844;-78
2022/05/23 04:59:45;;;;;;;;;5.20;5.20;;;;;19.48;41.65;98931.38;5091165;27;8990;-78
2022/05/23 05:02:22;;;;;;;;;6.40;6.00;;;;;19.80;40.54;98932.53;5109171;28;8998;-79
2022/05/23 05:04:56;;;;;;;;;8.40;8.40;;;;;20.11;39.50;98931.00;5091636;28;8829;-78
2022/05/23 05:07:28;;;;;;;;;8.80;8.60;;;;;19.85;42.15;98924.38;5109398;28;9600;-79
2022/05/23 05:10:00;;;;;;;;;7.00;7.00;;;;;19.37;43.27;98931.03;5109923;28;8849;-78
2022/05/23 05:12:29;;;;;;;;;7.40;7.20;;;;;19.02;44.61;98938.78;5110958;28;8872;-82
2022/05/23 05:14:59;;;;;;;;;8.60;8.00;;;;;18.80;45.09;98937.09;5093409;28;8879;-80
2022/05/23 05:17:28;;;;;;;;;9.00;8.20;;;;;18.65;45.10;98940.38;5025576;28;8849;-79
2022/05/23 05:19:57;;;;;;;;;7.80;7.80;;;;;18.57;45.74;98943.34;5109686;27;9668;-81
2022/05/23 05:22:46;;;;;;;;;6.20;6.20;;;;;18.69;45.52;98955.16;5110654;28;8857;-81
2022/05/23 05:25:24;;;;;;;;;13.20;12.40;;;;;18.90;45.45;98945.47;5111511;28;8857;-81
2022/05/23 05:28:06;;;;;;;;;12.80;12.00;;;;;18.85;46.31;98944.81;5048055;28;8911;-79
2022/05/23 05:30:42;;;;;;;;;18.50;18.50;;;;;19.09;48.76;98951.66;5110030;28;8853;-79
2022/05/23 05:33:18;;;;;;;;;15.80;15.00;;;;;19.54;48.37;98954.88;5079798;28;8855;-80
2022/05/23 05:35:52;;;;;;;;;16.25;16.25;;;;;19.96;48.33;98956.47;5103538;27;8857;-81
2022/05/23 05:38:30;;;;;;;;;18.00;16.00;;;;;20.42;48.00;98954.19;5109847;28;8841;-78
2022/05/23 05:41:06;;;;;;;;;19.50;17.50;;;;;20.86;48.06;98952.00;5108351;28;8865;-80
2022/05/23 05:43:41;;;;;;;;;19.75;19.75;;;;;21.19;47.58;98955.53;5093797;28;8849;-80
2022/05/23 05:46:18;;;;;;;;;19.50;18.25;;;;;21.49;46.32;98946.84;5107293;28;8918;-81
2022/05/23 05:49:02;;;;;;;;;16.60;15.80;;;;;21.46;45.53;98954.16;5092888;28;8945;-80
2022/05/23 05:51:32;;;;;;;;;12.60;12.60;;;;;21.74;44.93;98953.47;5057340;28;8929;-73
2022/05/23 05:54:24;;;;;;;;;17.60;17.00;;;;;21.98;44.20;98961.84;5108357;28;8855;-74
2022/05/23 05:57:04;;;;;;;;;15.00;12.00;;;;;21.26;43.70;98961.34;5107568;28;8865;-73
2022/05/23 05:59:34;;;;;;;;;16.00;15.00;;;;;21.15;43.88;98966.38;5106037;28;8828;-73
2022/05/23 06:02:06;;;;;;;;;12.20;10.80;;;;;20.27;45.62;98972.63;5072935;28;8875;-74
2022/05/23 06:04:37;;;;;;;;;16.50;16.00;;;;;19.98;46.30;98981.06;5103922;28;8852;-73
2022/05/23 06:13:00;;;;;;;;;14.40;12.80;;;;;19.88;47.79;98974.47;5108437;28;8847;-72
2022/05/23 06:15:40;;;;;;;;;18.40;18.00;;;;;19.85;47.93;98978.16;5090800;28;8979;-68
2022/05/23 06:18:10;;;;;;;;;14.60;14.60;;;;;20.09;46.68;98979.69;5102674;28;8958;-74
2022/05/23 06:20:41;;;;;;;;;12.80;12.80;;;;;19.82;46.73;98973.00;5105847;28;8851;-74
2022/05/23 06:23:10;;;;;;;;;18.50;18.25;;;;;19.93;46.51;98969.00;5076086;28;8890;-73
2022/05/23 06:25:49;;;;;;;;;18.80;14.80;;;;;20.08;46.72;98967.41;5102328;28;8886;-72
2022/05/23 06:28:24;;;;;;;;;14.40;13.80;;;;;19.96;46.40;98977.66;5087643;28;8859;-73
2022/05/23 06:30:52;;;;;;;;;12.80;12.80;;;;;20.44;45.55;98980.59;5097333;28;8875;-73
2022/05/23 06:33:26;;;;;;;;;11.20;11.20;;;;;21.01;43.98;98983.84;5104590;28;8852;-74
2022/05/23 06:36:01;;;;;;;;;13.20;13.00;;;;;21.48;42.83;98971.69;5087508;28;8840;-73
2022/05/23 06:38:30;;;;;;;;;9.00;9.00;;;;;21.06;42.74;98982.75;5089793;28;8898;-74
2022/05/23 06:41:38;;;;;;;;;11.80;11.80;;;;;20.79;44.08;98986.78;5089806;28;8975;-70
2022/05/23 06:44:33;;;;;;;;;14.00;14.00;;;;;20.41;45.53;98996.63;5089257;28;8860;-72
2022/05/23 06:47:20;;;;;;;;;14.20;14.20;;;;;20.51;45.84;98991.72;5102094;28;8853;-72
2022/05/23 06:50:08;;;;;;;;;15.00;14.00;;;;;20.73;46.20;98988.88;5088898;28;8852;-72
2022/05/23 06:53:09;;;;;;;;;14.00;13.00;;;;;20.74;45.19;98972.91;5025831;28;8836;-73
2022/05/23 06:55:53;;;;;;;;;13.80;12.60;;;;;20.23;46.20;98966.63;4988900;28;8888;-74
2022/05/23 06:58:26;;;;;;;;;14.60;13.60;;;;;20.24;46.51;98965.69;4976946;28;8832;-72
2022/05/23 07:00:55;;;;;;;;;18.20;16.20;;;;;20.60;45.82;98965.69;5009618;28;8879;-73
2022/05/23 07:03:43;;;;;;;;;15.20;14.60;;;;;21.00;45.24;98958.31;5024548;28;8852;-75
2022/05/23 07:14:42;;;;;;;;;12.40;11.20;;;;;20.78;43.95;98971.81;5010036;28;8970;-73
2022/05/23 07:17:11;;;;;;;;;11.80;11.80;;;;;20.77;43.79;98963.94;4973883;28;8859;-74
2022/05/23 07:20:07;;;;;;;;;10.60;10.60;;;;;20.79;42.16;98954.09;5023082;28;8840;-79
2022/05/23 07:22:39;;;;;;;;;11.80;11.60;;;;;20.94;41.94;98957.75;5045150;28;8840;-80
2022/05/23 07:25:10;;;;;;;;;15.00;15.00;;;;;21.24;42.34;98960.56;4998163;28;9636;-80
2022/05/23 07:27:39;;;;;;;;;14.50;13.00;;;;;21.57;42.27;98957.06;5042247;28;8868;-80
2022/05/23 07:30:10;;;;;;;;;11.80;11.00;;;;;21.34;40.97;98961.81;5071630;28;8857;-78
2022/05/23 07:32:49;;;;;;;;;12.40;12.40;;;;;21.47;41.31;98959.34;5041742;28;8867;-83
2022/05/23 07:35:35;;;;;;;;;15.00;14.40;;;;;21.54;40.90;98965.19;5034869;28;8876;-79
2022/05/23 07:38:05;;;;;;;;;9.00;8.60;;;;;21.72;38.80;98958.00;5034079;28;8947;-82
2022/05/23 07:40:34;;;;;;;;;9.20;9.20;;;;;21.70;38.66;98946.59;5040560;28;8874;-82
2022/05/23 07:43:07;;;;;;;;;10.20;8.80;;;;;21.93;39.30;98955.97;5040145;28;8894;-79
2022/05/23 07:45:38;;;;;;;;;7.80;7.60;;;;;22.31;37.90;98947.59;5034008;28;8840;-79
2022/05/23 07:48:08;;;;;;;;;8.20;7.20;;;;;22.81;38.36;98948.19;5038718;28;8855;-79
2022/05/23 07:50:44;;;;;;;;;10.60;10.20;;;;;23.21;34.65;98941.28;5080529;28;9029;-80
2022/05/23 08:01:49;;;;;;;;;9.60;8.60;;;;;24.00;33.13;98954.97;5039457;28;8886;-80
2022/05/23 08:04:19;;;;;;;;;9.60;9.20;;;;;24.37;32.41;98955.22;5000032;28;9589;-78
2022/05/23 08:06:52;;;;;;;;;10.80;10.80;;;;;24.65;33.31;98944.44;5044153;28;9060;-78
2022/05/23 08:09:23;;;;;;;;;9.80;8.40;;;;;24.83;31.15;98942.28;5015770;28;8898;-79
2022/05/23 08:12:02;;;;;;;;;9.40;9.40;;;;;25.01;31.29;98933.97;5033796;28;8963;-79
2022/05/23 08:14:32;;;;;;;;;8.80;7.40;;;;;25.16;31.03;98943.59;5031974;28;8858;-80
2022/05/23 08:17:06;;;;;;;;;9.80;9.80;;;;;23.85;31.33;98954.16;5032416;28;9664;-81
2022/05/23 08:19:39;;;;;;;;;8.60;8.60;;;;;23.47;32.15;98950.31;5048796;28;8966;-79
2022/05/23 08:22:20;;;;;;;;;9.80;9.60;;;;;22.63;32.80;98963.44;5049461;28;8970;-80
2022/05/23 08:24:57;;;;;;;;;11.20;10.20;;;;;23.08;32.07;98961.63;5061657;28;8886;-79
2022/05/23 08:27:27;;;;;;;;;7.40;7.40;;;;;23.46;32.23;98953.06;5089023;28;8980;-78
2022/05/23 08:29:56;;;;;;;;;9.80;9.80;;;;;23.77;32.07;98964.44;5096922;28;8843;-78
2022/05/23 08:32:26;;;;;;;;;9.20;9.20;;;;;22.96;33.24;98968.53;5092664;28;8832;-81
2022/05/23 08:35:09;;;;;;;;;9.00;8.00;;;;;22.71;34.13;98966.50;5075173;28;8865;-80
2022/05/23 08:37:39;;;;;;;;;8.00;8.00;;;;;23.04;32.52;98962.78;5096069;28;8960;-77
2022/05/23 08:40:12;;;;;;;;;9.80;9.80;;;;;22.63;32.70;98958.13;5127143;27;8877;-79
2022/05/23 08:42:55;;;;;;;;;5.00;5.00;;;;;22.49;30.99;98964.25;5092002;28;8977;-77
2022/05/23 08:45:37;;;;;;;;;4.40;4.00;;;;;22.32;30.54;98946.66;5088849;28;8875;-77
2022/05/23 08:48:14;;;;;;;;;6.20;6.20;;;;;22.19;30.32;98950.00;5071902;28;9611;-77
2022/05/23 08:50:56;;;;;;;;;6.00;6.00;;;;;22.35;30.91;98957.94;5071066;28;8837;-79
2022/05/23 08:53:32;;;;;;;;;6.00;6.00;;;;;22.59;30.68;98941.53;5086958;28;8857;-78
2022/05/23 08:56:28;;;;;;;;;5.00;5.00;;;;;22.61;31.91;98944.06;5047703;28;9681;-79
2022/05/23 08:59:25;;;;;;;;;5.00;5.00;;;;;22.63;32.05;98943.03;5022654;28;8900;-81
2022/05/23 09:01:59;;;;;;;;;6.00;5.80;;;;;22.88;31.28;98941.56;5014405;28;8830;-78
2022/05/23 09:04:45;;;;;;;;;6.20;6.20;;;;;22.81;30.65;98941.06;5014583;28;8878;-80
2022/05/23 09:07:26;;;;;;;;;4.80;4.80;;;;;22.52;30.77;98934.84;5007023;28;8885;-73
2022/05/23 09:09:59;;;;;;;;;7.20;6.60;;;;;22.58;30.89;98932.66;5006259;28;8855;-75
2022/05/23 09:12:28;;;;;;;;;5.00;5.00;;;;;23.02;30.65;98932.72;5005692;28;8875;-73
2022/05/23 09:14:58;;;;;;;;;7.20;6.60;;;;;23.49;30.56;98927.09;4943125;28;8899;-74
2022/05/23 09:17:32;;;;;;;;;6.40;6.40;;;;;23.98;29.65;98925.78;5006760;28;8851;-75
2022/05/23 09:20:08;;;;;;;;;4.40;4.40;;;;;24.32;27.86;98924.38;5008924;28;8856;-76
2022/05/23 09:22:43;;;;;;;;;6.40;6.20;;;;;24.69;27.17;98918.41;5025846;28;8893;-74
2022/05/23 09:25:16;;;;;;;;;5.60;5.60;;;;;24.19;27.12;98917.31;5022258;28;8852;-74
2022/05/23 09:27:50;;;;;;;;;7.60;6.60;;;;;24.30;26.53;98907.66;5021541;28;8867;-75
2022/05/23 09:30:23;;;;;;;;;6.60;6.60;;;;;23.92;27.24;98911.06;5023135;28;8884;-75
2022/05/23 09:32:57;;;;;;;;;5.40;5.00;;;;;23.70;27.94;98905.38;5027657;28;8857;-74
2022/05/23 09:35:31;;;;;;;;;6.00;5.40;;;;;23.11;28.77;98903.78;5047214;28;8877;-82
2022/05/23 09:38:15;;;;;;;;;7.00;7.00;;;;;23.15;28.21;98901.78;5068079;28;8844;-81
2022/05/23 09:41:05;;;;;;;;;6.60;6.60;;;;;23.52;28.58;98905.63;5049797;28;8897;-80
2022/05/23 09:49:21;;;;;;;;;8.00;7.80;;;;;24.16;27.85;98882.88;5099440;28;8857;-76
2022/05/23 09:51:55;;;;;;;;;6.40;5.80;;;;;23.35;28.73;98881.91;5108839;28;8849;-77
2022/05/23 09:54:32;;;;;;;;;6.80;6.80;;;;;23.56;28.71;98885.00;5088350;28;9640;-77
2022/05/23 09:57:04;;;;;;;;;7.80;7.80;;;;;23.58;28.97;98888.41;5065199;28;9014;-76
2022/05/23 09:59:36;;;;;;;;;6.20;6.20;;;;;23.81;28.53;98881.63;5049548;28;8984;-75
2022/05/23 10:02:23;;;;;;;;;7.00;7.00;;;;;23.54;28.40;98886.91;5073719;28;8973;-77
2022/05/23 10:04:52;;;;;;;;;8.20;8.00;;;;;23.51;29.53;98882.63;5073258;28;8881;-71
2022/05/23 10:07:28;;;;;;;;;6.00;6.00;;;;;23.09;30.66;98875.59;5048817;28;8863;-73
2022/05/23 10:09:59;;;;;;;;;8.80;8.00;;;;;23.41;31.26;98886.00;5017886;28;8878;-75
2022/05/23 10:12:49;;;;;;;;;11.20;11.20;;;;;23.96;30.35;98878.91;5067398;28;8863;-71
2022/05/23 10:15:24;;;;;;;;;6.40;6.40;;;;;23.84;29.58;98870.78;5066127;28;8975;-74
2022/05/23 10:18:03;;;;;;;;;8.20;8.20;;;;;24.17;29.89;98864.13;5050359;28;8860;-72
2022/05/23 10:20:37;;;;;;;;;8.00;8.00;;;;;24.62;28.92;98871.78;5074041;28;8894;-74
2022/05/23 10:23:14;;;;;;;;;7.60;7.60;;;;;24.97;28.16;98866.66;5058757;28;8888;-75
2022/05/23 10:25:48;;;;;;;;;12.60;12.60;;;;;25.35;28.69;98865.75;5067230;28;8911;-74
2022/05/23 10:28:23;;;;;;;;;7.60;7.60;;;;;25.68;28.54;98859.75;5086562;28;8875;-75
2022/05/23 10:31:01;;;;;;;;;6.60;6.60;;;;;26.03;27.87;98858.97;5104899;28;8880;-73
2022/05/23 10:33:36;;;;;;;;;7.60;7.20;;;;;26.14;27.18;98860.81;5088784;28;8873;-74
2022/05/23 10:36:10;;;;;;;;;6.00;6.00;;;;;26.41;26.73;98865.88;5084248;28;8839;-74
2022/05/23 10:44:34;;;;;;;;;8.20;7.20;;;;;25.06;28.11;98875.81;5103336;28;8901;-74
2022/05/23 10:47:17;;;;;;;;;7.80;7.80;;;;;24.94;28.23;98868.69;5086672;28;8879;-72
2022/05/23 10:49:57;;;;;;;;;6.80;6.80;;;;;24.97;28.33;98866.66;5056947;28;8829;-74
2022/05/23 10:52:37;;;;;;;;;6.60;6.60;;;;;24.97;28.36;98857.78;5104419;28;8936;-70
2022/05/23 10:55:16;;;;;;;;;6.80;6.80;;;;;24.77;28.02;98868.06;5053705;28;8966;-71
2022/05/23 10:58:00;;;;;;;;;10.60;8.60;;;;;24.50;28.65;98860.16;5101208;28;8833;-70
2022/05/23 11:00:36;;;;;;;;;6.80;6.80;;;;;25.31;28.46;98850.91;5087082;28;8854;-72
2022/05/23 11:03:14;;;;;;;;;5.80;5.80;;;;;25.00;28.06;98855.75;5088487;28;8856;-71
2022/05/23 11:05:51;;;;;;;;;8.40;8.40;;;;;25.23;27.54;98850.63;5087290;28;8944;-74
2022/05/23 11:08:39;;;;;;;;;7.80;7.80;;;;;24.92;27.91;98859.94;5086462;28;8871;-77
2022/05/23 11:11:18;;;;;;;;;9.80;9.80;;;;;24.81;27.85;98847.34;5079098;28;8872;-78
2022/05/23 11:14:08;;;;;;;;;7.00;7.00;;;;;24.74;27.03;98849.59;5092430;28;8982;-78
2022/05/23 11:16:47;;;;;;;;;7.00;7.00;;;;;25.10;26.93;98837.25;5094103;28;8869;-78
2022/05/23 11:19:32;;;;;;;;;6.20;6.20;;;;;25.27;26.14;98839.63;5104247;28;8881;-79
2022/05/23 11:22:06;;;;;;;;;6.20;6.00;;;;;25.67;25.47;98833.13;5108178;28;8891;-80
2022/05/23 11:24:42;;;;;;;;;11.60;9.20;;;;;26.23;25.59;98840.56;5087073;28;8942;-76
2022/05/23 11:35:56;;;;;;;;;4.60;4.60;;;;;28.37;22.56;98834.91;5108649;27;8860;-75
2022/05/23 11:38:27;;;;;;;;;5.60;5.00;;;;;28.78;22.50;98830.47;5097478;28;8837;-75
2022/05/23 11:41:06;;;;;;;;;5.20;5.20;;;;;29.22;22.03;98832.09;5105326;28;8883;-77
2022/05/23 11:43:36;;;;;;;;;5.80;5.20;;;;;29.47;21.79;98833.41;5098977;28;8841;-75
2022/05/23 11:46:11;;;;;;;;;8.00;8.00;;;;;29.28;21.66;98829.72;5092318;28;8856;-76
2022/05/23 11:48:52;;;;;;;;;5.40;5.40;;;;;29.47;20.98;98822.66;5092068;28;8824;-76
2022/05/23 11:51:38;;;;;;;;;13.20;11.80;;;;;28.96;21.53;98827.16;5089839;28;8867;-75
2022/05/23 11:54:14;;;;;;;;;8.20;7.20;;;;;28.91;22.43;98822.19;5072418;28;8944;-73
2022/05/23 11:57:04;;;;;;;;;6.00;6.00;;;;;29.37;21.95;98821.81;5072754;28;9002;-74
2022/05/23 12:00:01;;;;;;;;;5.40;5.40;;;;;29.67;21.74;98818.16;5091127;28;8860;-74
2022/05/23 12:02:40;;;;;;;;;6.20;6.00;;;;;28.84;22.15;98820.19;5089710;28;8878;-77
2022/05/23 12:05:31;;;;;;;;;7.40;7.40;;;;;27.75;22.84;98827.63;5096294;28;8938;-75
2022/05/23 12:08:06;;;;;;;;;8.00;8.00;;;;;27.61;23.65;98823.41;5108577;28;8996;-76
2022/05/23 12:10:55;;;;;;;;;7.00;7.00;;;;;26.29;24.76;98825.88;5109264;28;8867;-80
2022/05/23 12:13:39;;;;;;;;;5.60;5.60;;;;;25.34;26.50;98818.66;5105392;28;8910;-78
2022/05/23 12:16:36;;;;;;;;;8.20;6.40;;;;;25.00;27.12;98837.09;5087883;28;9004;-73
2022/05/23 12:19:24;;;;;;;;;7.40;6.00;;;;;25.06;26.98;98825.13;5047520;28;8931;-76
2022/05/23 12:21:54;;;;;;;;;7.00;7.00;;;;;25.35;26.49;98824.84;5031428;28;8854;-76
2022/05/23 12:24:29;;;;;;;;;6.00;6.00;;;;;25.59;26.11;98817.69;5014457;28;8866;-77
2022/05/23 12:27:29;;;;;;;;;4.40;4.00;;;;;25.71;26.05;98815.06;5028714;28;8860;-77
2022/05/23 12:30:34;;;;;;;;;6.00;6.00;;;;;26.11;25.62;98812.13;5063174;28;8868;-78
2022/05/23 12:33:12;;;;;;;;;7.00;6.60;;;;;26.49;25.10;98808.28;5047427;28;8854;-78
2022/05/23 12:35:53;;;;;;;;;4.40;4.00;;;;;27.05;25.15;98805.59;5063325;28;8855;-77
2022/05/23 12:38:41;;;;;;;;;9.20;7.20;;;;;27.54;23.72;98807.00;5051082;28;8905;-72
2022/05/23 12:41:23;;;;;;;;;8.00;6.40;;;;;27.48;22.97;98803.97;5072941;28;8890;-75
2022/05/23 12:44:07;;;;;;;;;4.40;4.00;;;;;27.84;24.08;98807.25;5073820;28;8859;-74
2022/05/23 12:46:48;;;;;;;;;7.20;5.40;;;;;28.18;23.90;98799.91;5072610;28;8879;-74
2022/05/23 12:49:39;;;;;;;;;5.40;5.40;;;;;28.35;22.88;98801.13;5066668;28;8863;-74
2022/05/23 12:52:24;;;;;;;;;5.40;5.40;;;;;28.34;22.74;98794.94;5066653;28;9001;-74
2022/05/23 12:55:09;;;;;;;;;5.80;5.80;;;;;28.28;22.83;98798.16;5066149;28;8859;-74
2022/05/23 12:58:13;;;;;;;;;7.00;6.80;;;;;26.28;25.71;98800.13;5104121;28;8979;-80
2022/05/23 13:00:46;;;;;;;;;8.20;6.60;;;;;26.25;25.63;98807.38;5075189;28;8902;-80
2022/05/23 13:03:27;;;;;;;;;6.40;6.40;;;;;25.54;26.28;98798.50;5109576;28;8876;-79
2022/05/23 13:06:05;;;;;;;;;7.00;6.80;;;;;25.52;26.77;98797.78;5109367;28;8994;-81
2022/05/23 13:08:42;;;;;;;;;7.00;6.20;;;;;25.99;26.23;98797.84;5058529;28;8860;-81
2022/05/23 13:11:19;;;;;;;;;7.60;5.60;;;;;26.57;25.55;98787.97;5070885;28;8829;-81
2022/05/23 13:13:49;;;;;;;;;7.20;7.20;;;;;27.07;25.15;98778.72;5052891;28;8842;-80
2022/05/23 13:16:22;;;;;;;;;6.80;6.80;;;;;27.26;24.86;98775.44;5086266;28;8896;-79
2022/05/23 13:25:04;;;;;;;;;7.00;5.40;;;;;27.78;23.18;98774.63;5087062;28;8851;-78
2022/05/23 13:27:37;;;;;;;;;10.25;10.00;;;;;27.87;23.43;98772.16;5061166;28;8881;-80